Time;durP1;ratioP1;P1;durP2;ratioP2;P2;SDS_P1;SDS_P2;PMS_P1;PMS_P2;Temp;Humidity;BMP_temperature;BMP_pressure;BME280_temperature;BME280_humidity;BME280_pressure;Samples;Min_cycle;Max_cycle;Signal;HPM_P1;HPM_P2
2022/03/02 00:00:24;;;;;;;12.40;6.20;;;;;;;;;;5038243;28;20250;-65
2022/03/02 00:02:52;;;;;;;9.50;6.37;;;;;;;;;;5028489;28;20307;-65
2022/03/02 00:05:20;;;;;;;8.30;5.93;;;;;;;;;;5037915;28;20247;-64
2022/03/02 00:07:48;;;;;;;19.77;7.20;;;;;;;;;;5021580;28;20243;-65
2022/03/02 00:10:16;;;;;;;12.43;6.50;;;;;;;;;;5018625;28;20239;-65
2022/03/02 00:12:44;;;;;;;13.73;6.70;;;;;;;;;;5018431;28;20266;-65
2022/03/02 00:15:12;;;;;;;15.27;7.43;;;;;;;;;;5018603;28;20263;-64
2022/03/02 00:17:41;;;;;;;13.43;5.90;;;;;;;;;;5034957;28;20286;-65
2022/03/02 00:20:09;;;;;;;9.03;6.60;;;;;;;;;;5038086;28;20239;-65
2022/03/02 00:22:38;;;;;;;13.70;6.50;;;;;;;;;;5037588;28;20690;-65
2022/03/02 00:25:06;;;;;;;9.50;6.73;;;;;;;;;;5035838;28;20231;-65
2022/03/02 00:27:34;;;;;;;10.30;5.80;;;;;;;;;;5020949;28;20656;-65
2022/03/02 00:30:02;;;;;;;13.50;6.77;;;;;;;;;;5037932;28;20231;-64
2022/03/02 00:32:30;;;;;;;10.80;6.07;;;;;;;;;;5022865;28;20296;-65
2022/03/02 00:35:00;;;;;;;11.97;6.60;;;;;;;;;;5018245;28;20319;-65
2022/03/02 00:37:28;;;;;;;22.97;7.43;;;;;;;;;;5017740;28;20247;-65
2022/03/02 00:39:56;;;;;;;12.40;6.80;;;;;;;;;;5018334;28;20246;-65
2022/03/02 00:42:24;;;;;;;9.53;6.07;;;;;;;;;;5018106;28;20255;-66
2022/03/02 00:44:52;;;;;;;10.53;6.40;;;;;;;;;;5018232;28;20246;-66
2022/03/02 00:47:20;;;;;;;12.33;5.93;;;;;;;;;;5017911;28;20684;-66
2022/03/02 00:49:48;;;;;;;15.43;6.30;;;;;;;;;;5017798;28;20244;-66
2022/03/02 00:52:18;;;;;;;11.73;7.10;;;;;;;;;;5017578;28;20328;-66
2022/03/02 00:54:46;;;;;;;15.37;6.27;;;;;;;;;;5018029;28;20240;-65
2022/03/02 00:57:14;;;;;;;12.13;6.77;;;;;;;;;;5017807;28;20315;-66
2022/03/02 00:59:43;;;;;;;14.23;6.80;;;;;;;;;;5024775;28;20218;-66
2022/03/02 01:02:11;;;;;;;15.57;6.97;;;;;;;;;;5023565;28;20723;-66
2022/03/02 01:04:39;;;;;;;10.20;6.37;;;;;;;;;;5017808;28;20214;-66
2022/03/02 01:07:07;;;;;;;10.93;6.37;;;;;;;;;;5017339;28;20783;-66
2022/03/02 01:09:36;;;;;;;13.07;6.53;;;;;;;;;;5018001;28;20239;-66
2022/03/02 01:12:04;;;;;;;14.60;6.43;;;;;;;;;;5017449;28;20267;-65
2022/03/02 01:14:32;;;;;;;14.73;6.70;;;;;;;;;;5017876;28;20240;-65
2022/03/02 01:17:00;;;;;;;17.03;7.17;;;;;;;;;;5028594;28;20258;-65
2022/03/02 01:19:29;;;;;;;12.70;6.47;;;;;;;;;;5037178;28;20238;-66
2022/03/02 01:21:57;;;;;;;9.67;6.80;;;;;;;;;;5037041;28;20299;-65
2022/03/02 01:24:25;;;;;;;14.27;7.10;;;;;;;;;;5037015;28;20243;-65
2022/03/02 01:26:55;;;;;;;16.03;9.63;;;;;;;;;;5019353;28;20739;-65
2022/03/02 01:29:23;;;;;;;13.00;7.53;;;;;;;;;;5028831;28;20283;-65
2022/03/02 01:31:51;;;;;;;15.03;7.00;;;;;;;;;;5016963;28;20240;-65
2022/03/02 01:34:19;;;;;;;11.97;7.47;;;;;;;;;;5015565;28;20204;-65
2022/03/02 01:36:47;;;;;;;14.97;7.60;;;;;;;;;;5017473;28;20323;-65
2022/03/02 01:39:15;;;;;;;12.10;6.97;;;;;;;;;;5018946;28;20292;-65
2022/03/02 01:41:43;;;;;;;11.37;7.03;;;;;;;;;;5021447;28;20243;-65
2022/03/02 01:44:13;;;;;;;11.10;6.87;;;;;;;;;;5021474;28;20247;-65
2022/03/02 01:46:41;;;;;;;10.70;6.57;;;;;;;;;;5021335;28;20224;-65
2022/03/02 01:49:09;;;;;;;15.20;7.70;;;;;;;;;;5021376;28;20243;-65
2022/03/02 01:51:38;;;;;;;17.40;6.80;;;;;;;;;;5021499;28;20275;-65
2022/03/02 01:54:06;;;;;;;15.80;6.93;;;;;;;;;;5020505;28;20645;-66
2022/03/02 01:56:35;;;;;;;10.80;6.83;;;;;;;;;;5020718;28;20306;-65
2022/03/02 01:59:04;;;;;;;10.47;6.17;;;;;;;;;;5033966;28;20238;-65
2022/03/02 02:01:33;;;;;;;12.17;6.03;;;;;;;;;;5021609;28;20219;-66
2022/03/02 02:04:02;;;;;;;12.10;6.20;;;;;;;;;;5021056;28;20224;-66
2022/03/02 02:06:30;;;;;;;11.17;5.93;;;;;;;;;;5027115;28;20251;-66
2022/03/02 02:08:58;;;;;;;14.73;6.10;;;;;;;;;;5026588;28;20240;-66
2022/03/02 02:11:26;;;;;;;8.57;6.53;;;;;;;;;;5020604;28;20267;-66
2022/03/02 02:13:54;;;;;;;13.67;7.27;;;;;;;;;;5020797;28;20239;-66
2022/03/02 02:16:23;;;;;;;16.73;6.70;;;;;;;;;;5026384;28;20667;-65
2022/03/02 02:18:54;;;;;;;10.77;6.30;;;;;;;;;;5040527;28;20295;-65
2022/03/02 02:21:24;;;;;;;13.83;6.43;;;;;;;;;;5040301;28;20659;-65
2022/03/02 02:23:52;;;;;;;14.00;6.83;;;;;;;;;;5039787;28;20697;-65
2022/03/02 02:26:21;;;;;;;12.93;6.03;;;;;;;;;;5028208;28;20252;-66
2022/03/02 02:28:50;;;;;;;11.83;6.53;;;;;;;;;;5032215;28;20574;-65
2022/03/02 02:31:18;;;;;;;9.93;6.17;;;;;;;;;;5020706;28;20213;-65
2022/03/02 02:33:47;;;;;;;10.97;5.73;;;;;;;;;;5020724;28;20239;-65
2022/03/02 02:36:15;;;;;;;12.93;7.20;;;;;;;;;;5027058;28;20266;-65
2022/03/02 02:38:44;;;;;;;12.63;6.13;;;;;;;;;;5039917;28;20243;-66
2022/03/02 02:41:12;;;;;;;11.13;5.87;;;;;;;;;;5040203;28;20239;-65
2022/03/02 02:43:42;;;;;;;13.37;6.50;;;;;;;;;;5039852;28;20230;-65
2022/03/02 02:46:10;;;;;;;11.50;6.67;;;;;;;;;;5022449;28;20234;-65
2022/03/02 02:48:39;;;;;;;11.30;6.17;;;;;;;;;;5020022;28;20585;-65
2022/03/02 02:51:07;;;;;;;14.33;6.23;;;;;;;;;;5019301;28;20239;-65
2022/03/02 02:53:35;;;;;;;9.57;5.57;;;;;;;;;;5020136;28;20246;-66
2022/03/02 02:56:05;;;;;;;10.83;6.30;;;;;;;;;;5019597;28;20259;-65
2022/03/02 02:58:33;;;;;;;12.40;5.63;;;;;;;;;;5029158;28;20282;-65
2022/03/02 03:01:02;;;;;;;12.47;5.70;;;;;;;;;;5024872;28;20243;-66
2022/03/02 03:03:30;;;;;;;14.10;5.77;;;;;;;;;;5019759;28;20205;-65
2022/03/02 03:05:58;;;;;;;11.30;5.67;;;;;;;;;;5019682;28;20774;-66
2022/03/02 03:08:26;;;;;;;10.27;6.10;;;;;;;;;;5019613;28;20240;-66
2022/03/02 03:10:54;;;;;;;9.57;5.70;;;;;;;;;;5019637;28;20244;-65
2022/03/02 03:13:24;;;;;;;10.90;5.57;;;;;;;;;;5019298;28;20278;-65
2022/03/02 03:15:52;;;;;;;12.87;6.00;;;;;;;;;;5021401;28;20239;-65
2022/03/02 03:18:20;;;;;;;14.83;6.43;;;;;;;;;;5038963;28;20766;-65
2022/03/02 03:20:49;;;;;;;11.23;5.40;;;;;;;;;;5036017;28;20200;-65
2022/03/02 03:23:17;;;;;;;10.87;6.23;;;;;;;;;;5038793;28;20211;-66
2022/03/02 03:25:45;;;;;;;11.97;5.97;;;;;;;;;;5037975;28;20262;-65
2022/03/02 03:28:13;;;;;;;16.63;5.90;;;;;;;;;;5038644;28;20227;-66
2022/03/02 03:30:42;;;;;;;17.67;5.40;;;;;;;;;;5038853;28;20863;-66
2022/03/02 03:33:10;;;;;;;14.33;6.70;;;;;;;;;;5038816;28;20199;-66
2022/03/02 03:35:38;;;;;;;9.10;5.73;;;;;;;;;;5038892;28;20269;-66
2022/03/02 03:38:06;;;;;;;13.77;5.97;;;;;;;;;;5038239;28;20722;-65
2022/03/02 03:40:34;;;;;;;12.37;5.30;;;;;;;;;;5038830;28;20231;-65
2022/03/02 03:43:02;;;;;;;11.07;5.67;;;;;;;;;;5038515;28;20203;-66
2022/03/02 03:45:30;;;;;;;14.40;5.20;;;;;;;;;;5039018;28;20231;-66
2022/03/02 03:48:00;;;;;;;14.47;5.47;;;;;;;;;;5039041;28;20203;-65
2022/03/02 03:50:28;;;;;;;11.30;5.87;;;;;;;;;;5038779;28;20294;-66
2022/03/02 03:52:56;;;;;;;19.60;6.10;;;;;;;;;;5038427;28;20215;-65
2022/03/02 03:55:24;;;;;;;11.87;6.03;;;;;;;;;;5038765;28;20313;-65
2022/03/02 03:57:52;;;;;;;13.70;5.73;;;;;;;;;;5038373;28;20267;-65
2022/03/02 04:00:20;;;;;;;15.27;6.23;;;;;;;;;;5025481;28;20262;-65
2022/03/02 04:02:48;;;;;;;13.60;6.27;;;;;;;;;;5030355;28;20616;-65
2022/03/02 04:05:18;;;;;;;9.43;5.07;;;;;;;;;;5018689;28;20232;-65
2022/03/02 04:07:47;;;;;;;11.23;5.97;;;;;;;;;;5018362;28;20231;-65
2022/03/02 04:10:15;;;;;;;11.83;6.63;;;;;;;;;;5018438;28;20204;-65
2022/03/02 04:12:43;;;;;;;12.43;5.93;;;;;;;;;;5018390;28;20323;-65
2022/03/02 04:15:12;;;;;;;8.73;5.70;;;;;;;;;;5019274;28;20235;-65
2022/03/02 04:17:40;;;;;;;13.33;6.53;;;;;;;;;;5035126;28;20738;-65
2022/03/02 04:20:08;;;;;;;9.90;5.30;;;;;;;;;;5035121;28;20232;-65
2022/03/02 04:22:38;;;;;;;9.93;6.03;;;;;;;;;;5038040;28;20988;-66
2022/03/02 04:25:07;;;;;;;14.30;5.80;;;;;;;;;;5035656;28;20258;-65
2022/03/02 04:27:35;;;;;;;15.03;6.23;;;;;;;;;;5018543;28;20287;-65
2022/03/02 04:30:03;;;;;;;14.07;5.50;;;;;;;;;;5018187;28;20908;-66
2022/03/02 04:32:31;;;;;;;12.30;6.97;;;;;;;;;;5018290;28;20258;-65
2022/03/02 04:34:59;;;;;;;8.20;6.10;;;;;;;;;;5018185;28;20212;-65
2022/03/02 04:37:27;;;;;;;7.90;5.47;;;;;;;;;;5017796;28;20263;-65
2022/03/02 04:39:57;;;;;;;14.10;6.10;;;;;;;;;;5018258;28;20236;-65
2022/03/02 04:42:25;;;;;;;12.43;6.53;;;;;;;;;;5031205;28;20269;-65
2022/03/02 04:44:53;;;;;;;11.50;5.37;;;;;;;;;;5028199;28;20227;-65
2022/03/02 04:47:21;;;;;;;9.97;5.57;;;;;;;;;;5030614;28;20224;-66
2022/03/02 04:49:49;;;;;;;16.00;5.93;;;;;;;;;;5025677;28;20235;-66
2022/03/02 04:52:17;;;;;;;14.13;6.70;;;;;;;;;;5029286;28;20228;-66
2022/03/02 04:57:32;;;;;;;10.23;5.53;;;;;;;;;;5026319;28;20255;-66
2022/03/02 05:00:00;;;;;;;14.03;5.83;;;;;;;;;;5027967;28;20232;-66
2022/03/02 05:02:28;;;;;;;13.00;5.57;;;;;;;;;;5027849;28;20726;-65
2022/03/02 05:04:56;;;;;;;12.93;6.23;;;;;;;;;;5026783;28;20705;-66
2022/03/02 05:07:24;;;;;;;10.37;6.00;;;;;;;;;;5028036;28;20238;-65
2022/03/02 05:09:52;;;;;;;9.83;6.33;;;;;;;;;;5028806;28;20265;-65
2022/03/02 05:12:20;;;;;;;12.63;5.47;;;;;;;;;;5017208;28;20267;-66
2022/03/02 05:14:50;;;;;;;8.67;5.80;;;;;;;;;;5010971;28;20231;-65
2022/03/02 05:17:18;;;;;;;8.33;5.90;;;;;;;;;;5016191;28;20282;-65
2022/03/02 05:19:46;;;;;;;9.93;5.77;;;;;;;;;;5018008;28;20242;-66
2022/03/02 05:22:14;;;;;;;10.50;6.10;;;;;;;;;;5015144;28;20287;-65
2022/03/02 05:24:42;;;;;;;12.00;5.70;;;;;;;;;;5019372;28;20250;-65
2022/03/02 05:27:10;;;;;;;12.27;5.63;;;;;;;;;;5013536;28;20283;-66
2022/03/02 05:29:39;;;;;;;11.50;5.57;;;;;;;;;;5015935;28;20204;-66
2022/03/02 05:32:09;;;;;;;11.67;4.97;;;;;;;;;;5012911;28;20676;-65
2022/03/02 05:34:37;;;;;;;9.07;5.90;;;;;;;;;;5012807;28;20283;-66
2022/03/02 05:37:05;;;;;;;9.03;6.10;;;;;;;;;;5012952;28;20256;-66
2022/03/02 05:39:33;;;;;;;12.47;6.33;;;;;;;;;;5013548;28;20256;-66
2022/03/02 05:42:01;;;;;;;9.03;5.83;;;;;;;;;;5012626;28;20656;-66
2022/03/02 05:44:29;;;;;;;13.47;5.60;;;;;;;;;;5015988;28;20227;-66
2022/03/02 05:46:57;;;;;;;9.73;5.40;;;;;;;;;;5017360;28;20224;-66
2022/03/02 05:49:27;;;;;;;9.43;6.07;;;;;;;;;;5018622;28;20228;-65
2022/03/02 05:51:54;;;;;;;10.97;5.43;;;;;;;;;;5016048;28;20234;-66
2022/03/02 05:54:22;;;;;;;8.77;5.37;;;;;;;;;;5021266;28;20331;-65
2022/03/02 05:56:50;;;;;;;12.07;5.43;;;;;;;;;;5016469;28;20263;-66
2022/03/02 05:59:18;;;;;;;15.53;6.07;;;;;;;;;;5020966;28;20333;-66
2022/03/02 06:01:47;;;;;;;11.07;6.03;;;;;;;;;;5017199;28;20238;-66
2022/03/02 06:04:15;;;;;;;15.20;5.57;;;;;;;;;;5015698;28;20636;-66
2022/03/02 06:06:44;;;;;;;15.60;6.43;;;;;;;;;;5018606;28;20375;-66
2022/03/02 06:09:12;;;;;;;15.97;5.57;;;;;;;;;;5018896;28;20275;-65
2022/03/02 06:11:43;;;;;;;12.20;6.33;;;;;;;;;;5021631;28;20230;-66
2022/03/02 06:14:11;;;;;;;16.37;5.63;;;;;;;;;;5038181;28;20234;-66
2022/03/02 06:16:42;;;;;;;12.70;5.70;;;;;;;;;;5039894;28;20610;-66
2022/03/02 06:19:11;;;;;;;7.10;5.57;;;;;;;;;;5039883;28;20306;-66
2022/03/02 06:21:40;;;;;;;10.63;5.70;;;;;;;;;;5034293;28;20254;-65
2022/03/02 06:24:13;;;;;;;11.00;5.50;;;;;;;;;;5035235;28;20213;-66
2022/03/02 06:26:42;;;;;;;14.17;6.27;;;;;;;;;;5029174;28;20739;-66
2022/03/02 06:29:10;;;;;;;10.57;6.13;;;;;;;;;;5031838;28;20718;-66
2022/03/02 06:31:38;;;;;;;10.40;5.37;;;;;;;;;;5030153;28;20291;-66
2022/03/02 06:34:06;;;;;;;12.93;5.50;;;;;;;;;;5030839;28;20234;-65
2022/03/02 06:36:34;;;;;;;13.17;5.97;;;;;;;;;;5035517;28;20277;-66
2022/03/02 06:39:02;;;;;;;12.63;5.47;;;;;;;;;;5030438;28;20251;-66
2022/03/02 06:41:35;;;;;;;13.43;5.27;;;;;;;;;;5033877;28;20201;-65
2022/03/02 06:44:04;;;;;;;10.97;5.03;;;;;;;;;;5036933;28;20600;-66
2022/03/02 06:46:39;;;;;;;15.53;9.10;;;;;;;;;;5030999;28;20258;-65
2022/03/02 06:49:12;;;;;;;11.40;5.67;;;;;;;;;;5036571;28;20227;-66
2022/03/02 06:51:41;;;;;;;14.07;5.47;;;;;;;;;;5032744;28;20630;-65
2022/03/02 06:54:10;;;;;;;13.93;5.87;;;;;;;;;;5033993;28;20200;-65
2022/03/02 06:56:44;;;;;;;13.80;6.00;;;;;;;;;;5033669;28;20270;-65
2022/03/02 06:59:13;;;;;;;15.00;5.40;;;;;;;;;;5033310;28;20262;-66
2022/03/02 07:01:43;;;;;;;10.37;5.37;;;;;;;;;;5035580;28;20698;-66
2022/03/02 07:04:13;;;;;;;14.33;5.80;;;;;;;;;;5037054;28;20200;-66
2022/03/02 07:06:41;;;;;;;8.67;5.50;;;;;;;;;;5038846;28;20231;-66
2022/03/02 07:09:10;;;;;;;9.07;5.10;;;;;;;;;;5039775;28;20204;-66
2022/03/02 07:11:38;;;;;;;9.70;4.93;;;;;;;;;;5038961;28;20326;-66
2022/03/02 07:14:08;;;;;;;13.37;5.63;;;;;;;;;;5039372;28;20208;-66
2022/03/02 07:16:36;;;;;;;9.63;5.30;;;;;;;;;;5039110;28;20258;-66
2022/03/02 07:19:04;;;;;;;10.03;6.03;;;;;;;;;;5039142;28;20230;-66
2022/03/02 07:21:33;;;;;;;10.53;6.03;;;;;;;;;;5037416;28;20223;-65
2022/03/02 07:24:06;;;;;;;10.87;5.33;;;;;;;;;;5038399;28;20231;-66
2022/03/02 07:26:35;;;;;;;11.57;5.90;;;;;;;;;;5038728;28;20251;-66
2022/03/02 07:29:05;;;;;;;8.00;5.13;;;;;;;;;;5037953;28;20729;-66
2022/03/02 07:31:35;;;;;;;11.83;5.03;;;;;;;;;;5037627;28;20741;-67
2022/03/02 07:34:13;;;;;;;16.20;5.83;;;;;;;;;;5036403;28;20570;-67
2022/03/02 07:36:41;;;;;;;12.73;6.23;;;;;;;;;;5035791;28;20251;-67
2022/03/02 07:39:10;;;;;;;8.37;4.97;;;;;;;;;;5036485;28;20667;-67
2022/03/02 07:41:38;;;;;;;9.03;5.03;;;;;;;;;;5034159;28;20664;-67
2022/03/02 07:44:06;;;;;;;8.90;4.90;;;;;;;;;;5036288;28;20235;-67
2022/03/02 07:46:36;;;;;;;8.40;5.17;;;;;;;;;;5036372;28;20215;-68
2022/03/02 07:49:05;;;;;;;9.10;5.40;;;;;;;;;;5037252;28;20250;-67
2022/03/02 07:51:34;;;;;;;10.43;5.47;;;;;;;;;;5021382;28;20641;-67
2022/03/02 07:54:03;;;;;;;10.93;5.17;;;;;;;;;;5018745;28;20292;-67
2022/03/02 07:56:32;;;;;;;9.97;5.00;;;;;;;;;;5022912;28;20224;-67
2022/03/02 07:59:02;;;;;;;11.83;5.10;;;;;;;;;;5047030;28;20732;-67
2022/03/02 08:01:35;;;;;;;10.27;5.17;;;;;;;;;;5038497;28;20250;-68
2022/03/02 08:04:07;;;;;;;10.57;4.47;;;;;;;;;;5020921;28;20216;-68
2022/03/02 08:06:36;;;;;;;8.83;4.77;;;;;;;;;;5017901;28;20609;-68
2022/03/02 08:09:05;;;;;;;11.83;4.63;;;;;;;;;;5018193;28;20638;-68
2022/03/02 08:11:33;;;;;;;9.63;5.00;;;;;;;;;;5026355;28;20203;-68
2022/03/02 08:14:03;;;;;;;12.07;5.33;;;;;;;;;;5023317;28;20213;-68
2022/03/02 08:16:32;;;;;;;6.47;4.67;;;;;;;;;;5025328;28;20588;-68
2022/03/02 08:19:01;;;;;;;11.20;5.17;;;;;;;;;;5037542;28;20214;-68
2022/03/02 08:21:32;;;;;;;7.27;4.73;;;;;;;;;;5037318;28;20239;-68
2022/03/02 08:24:03;;;;;;;12.23;4.90;;;;;;;;;;5037853;28;20253;-68
2022/03/02 08:26:32;;;;;;;8.30;4.77;;;;;;;;;;5024073;28;20224;-68
2022/03/02 08:29:02;;;;;;;9.50;4.43;;;;;;;;;;5017974;28;20303;-68
2022/03/02 08:31:32;;;;;;;6.20;4.23;;;;;;;;;;5017674;28;20234;-68
2022/03/02 08:34:01;;;;;;;10.73;4.83;;;;;;;;;;5017633;28;20246;-68
2022/03/02 08:36:33;;;;;;;13.20;5.33;;;;;;;;;;5018381;28;20239;-68
2022/03/02 08:39:04;;;;;;;10.10;4.60;;;;;;;;;;5024197;28;20205;-68
2022/03/02 08:41:33;;;;;;;12.37;4.77;;;;;;;;;;5037078;28;20250;-68
2022/03/02 08:44:01;;;;;;;10.27;4.37;;;;;;;;;;5033037;28;20246;-68
2022/03/02 08:46:29;;;;;;;9.97;4.40;;;;;;;;;;5020320;28;20228;-68
2022/03/02 08:48:58;;;;;;;6.60;4.03;;;;;;;;;;5017142;28;20674;-68
2022/03/02 08:51:27;;;;;;;7.40;4.53;;;;;;;;;;5017280;28;20246;-68
2022/03/02 08:54:01;;;;;;;8.00;3.97;;;;;;;;;;5017709;28;20207;-68
2022/03/02 08:56:32;;;;;;;6.57;3.77;;;;;;;;;;5017727;28;20312;-68
2022/03/02 08:59:01;;;;;;;12.40;4.13;;;;;;;;;;5017504;28;20216;-68
2022/03/02 09:01:33;;;;;;;20.37;5.83;;;;;;;;;;5018403;28;20227;-68
2022/03/02 09:04:04;;;;;;;13.63;4.63;;;;;;;;;;5017365;28;20291;-68
2022/03/02 09:06:32;;;;;;;7.33;3.87;;;;;;;;;;5017074;28;20640;-68
2022/03/02 09:09:00;;;;;;;22.07;6.30;;;;;;;;;;5017279;28;20219;-69
2022/03/02 09:11:30;;;;;;;19.07;5.73;;;;;;;;;;5017281;28;20204;-69
2022/03/02 09:13:58;;;;;;;22.97;6.03;;;;;;;;;;5026037;28;20203;-68
2022/03/02 09:16:26;;;;;;;11.23;4.43;;;;;;;;;;5036889;28;20302;-68
2022/03/02 09:18:55;;;;;;;15.47;4.30;;;;;;;;;;5036947;28;20674;-68
2022/03/02 09:21:24;;;;;;;9.17;4.10;;;;;;;;;;5036687;28;20238;-67
2022/03/02 09:23:53;;;;;;;8.67;3.57;;;;;;;;;;5037168;28;20273;-68
2022/03/02 09:26:22;;;;;;;5.60;3.57;;;;;;;;;;5024444;28;20227;-67
2022/03/02 09:28:52;;;;;;;8.60;4.30;;;;;;;;;;5017596;28;20219;-67
2022/03/02 09:31:21;;;;;;;6.63;3.70;;;;;;;;;;5017412;28;20242;-67
2022/03/02 09:33:55;;;;;;;6.53;4.57;;;;;;;;;;5017449;28;20214;-66
2022/03/02 09:36:27;;;;;;;7.30;4.00;;;;;;;;;;5023785;28;20261;-67
2022/03/02 09:38:55;;;;;;;9.23;4.77;;;;;;;;;;5029052;28;20262;-69
2022/03/02 09:41:29;;;;;;;10.63;3.97;;;;;;;;;;5035760;28;20227;-67
2022/03/02 09:44:00;;;;;;;6.80;3.93;;;;;;;;;;5035899;28;20646;-68
2022/03/02 09:46:36;;;;;;;10.37;4.17;;;;;;;;;;5019594;28;20234;-68
2022/03/02 09:49:06;;;;;;;9.17;3.57;;;;;;;;;;5016641;28;20211;-68
2022/03/02 09:51:35;;;;;;;11.03;4.20;;;;;;;;;;5017078;28;20201;-68
2022/03/02 09:54:08;;;;;;;7.53;3.50;;;;;;;;;;5017067;28;20204;-66
2022/03/02 09:56:37;;;;;;;7.50;4.10;;;;;;;;;;5016964;28;20228;-68
2022/03/02 09:59:07;;;;;;;10.07;4.47;;;;;;;;;;5016943;28;20288;-68
2022/03/02 10:01:38;;;;;;;12.20;3.90;;;;;;;;;;5030152;28;20223;-67
2022/03/02 10:04:13;;;;;;;8.13;3.90;;;;;;;;;;5036692;28;20206;-67
2022/03/02 10:06:43;;;;;;;4.50;3.43;;;;;;;;;;5038978;28;20255;-68
2022/03/02 10:09:12;;;;;;;9.63;3.93;;;;;;;;;;5037196;28;20254;-68
2022/03/02 10:11:41;;;;;;;6.03;3.77;;;;;;;;;;5037779;28;20328;-67
2022/03/02 10:14:10;;;;;;;8.37;4.20;;;;;;;;;;5036615;28;20747;-67
2022/03/02 10:16:43;;;;;;;23.60;6.63;;;;;;;;;;5037809;28;20638;-68
2022/03/02 10:19:34;;;;;;;38.87;10.67;;;;;;;;;;5038636;28;20218;-66
2022/03/02 10:22:06;;;;;;;16.37;5.23;;;;;;;;;;5036147;28;20277;-67
2022/03/02 10:24:41;;;;;;;20.37;7.27;;;;;;;;;;5035886;28;20200;-68
2022/03/02 10:27:16;;;;;;;129.00;25.57;;;;;;;;;;5037625;28;20639;-68
2022/03/02 10:29:53;;;;;;;13.53;6.07;;;;;;;;;;5034959;28;20207;-68
2022/03/02 10:32:24;;;;;;;10.53;5.40;;;;;;;;;;5036133;28;20230;-66
2022/03/02 10:34:54;;;;;;;5.90;3.87;;;;;;;;;;5039330;28;20246;-69
2022/03/02 10:37:34;;;;;;;7.83;4.20;;;;;;;;;;5028616;28;20271;-67
2022/03/02 10:40:09;;;;;;;13.27;4.90;;;;;;;;;;5039826;28;20269;-68
2022/03/02 10:42:40;;;;;;;5.67;4.30;;;;;;;;;;5039576;28;20620;-68
2022/03/02 10:45:17;;;;;;;6.20;4.27;;;;;;;;;;5038663;28;20583;-69
2022/03/02 10:47:55;;;;;;;7.23;4.20;;;;;;;;;;5027063;28;20203;-69
2022/03/02 10:50:24;;;;;;;5.47;3.70;;;;;;;;;;5022357;28;20672;-69
2022/03/02 10:52:54;;;;;;;7.20;4.80;;;;;;;;;;5018219;28;20208;-68
2022/03/02 10:55:23;;;;;;;7.27;4.07;;;;;;;;;;5019253;28;20691;-69
2022/03/02 10:57:51;;;;;;;11.43;4.80;;;;;;;;;;5030741;28;20266;-69
2022/03/02 11:00:22;;;;;;;8.13;4.43;;;;;;;;;;5039178;28;20242;-68
2022/03/02 11:02:54;;;;;;;9.83;4.20;;;;;;;;;;5036853;28;20670;-68
2022/03/02 11:05:23;;;;;;;7.00;4.73;;;;;;;;;;5039032;28;20311;-69
2022/03/02 11:07:51;;;;;;;8.83;4.53;;;;;;;;;;5037728;28;20231;-67
2022/03/02 11:10:21;;;;;;;10.97;4.47;;;;;;;;;;5038895;28;20548;-68
2022/03/02 11:12:51;;;;;;;5.33;4.07;;;;;;;;;;5038479;28;20278;-68
2022/03/02 11:15:21;;;;;;;9.63;4.93;;;;;;;;;;5039203;28;20223;-68
2022/03/02 11:17:56;;;;;;;11.53;4.37;;;;;;;;;;5038955;28;20242;-69
2022/03/02 11:20:25;;;;;;;7.20;4.50;;;;;;;;;;5030361;28;20245;-67
2022/03/02 11:22:55;;;;;;;5.13;4.03;;;;;;;;;;5038804;28;20671;-68
2022/03/02 11:25:43;;;;;;;6.97;4.77;;;;;;;;;;5034640;28;20224;-63
2022/03/02 11:28:13;;;;;;;5.80;4.53;;;;;;;;;;5032729;28;20242;-64
2022/03/02 11:30:47;;;;;;;8.80;4.77;;;;;;;;;;5032258;28;20212;-64
2022/03/02 11:33:16;;;;;;;7.17;5.03;;;;;;;;;;5018844;28;20655;-64
2022/03/02 11:35:46;;;;;;;7.33;4.43;;;;;;;;;;5026331;28;20258;-64
2022/03/02 11:38:19;;;;;;;8.37;5.17;;;;;;;;;;5022740;28;20315;-67
2022/03/02 11:40:48;;;;;;;8.57;4.70;;;;;;;;;;5018408;28;20235;-66
2022/03/02 11:43:17;;;;;;;5.87;3.20;;;;;;;;;;5018834;28;20250;-66
2022/03/02 11:45:56;;;;;;;6.53;4.00;;;;;;;;;;5018509;28;20262;-67
2022/03/02 11:48:25;;;;;;;11.13;4.20;;;;;;;;;;5018606;28;20204;-67
2022/03/02 11:51:10;;;;;;;9.60;3.90;;;;;;;;;;5019030;28;20204;-67
2022/03/02 11:53:40;;;;;;;4.80;4.07;;;;;;;;;;5027315;28;20258;-67
2022/03/02 11:56:09;;;;;;;7.03;4.70;;;;;;;;;;5038136;28;20309;-67
2022/03/02 11:59:00;;;;;;;10.87;4.37;;;;;;;;;;5038064;28;20203;-66
2022/03/02 12:01:45;;;;;;;7.97;3.47;;;;;;;;;;5037456;28;20227;-66
2022/03/02 12:04:28;;;;;;;5.20;4.03;;;;;;;;;;5037883;28;20207;-67
2022/03/02 12:06:56;;;;;;;6.67;3.60;;;;;;;;;;5038135;28;20230;-67
2022/03/02 12:09:26;;;;;;;6.20;3.70;;;;;;;;;;5038070;28;20219;-66
2022/03/02 12:12:06;;;;;;;5.50;3.30;;;;;;;;;;5037961;28;20242;-66
2022/03/02 12:14:39;;;;;;;9.83;4.27;;;;;;;;;;5037846;28;20216;-67
2022/03/02 12:17:13;;;;;;;5.10;3.50;;;;;;;;;;5037864;28;20326;-67
2022/03/02 12:19:41;;;;;;;6.80;4.33;;;;;;;;;;5034681;28;20215;-66
2022/03/02 12:22:10;;;;;;;7.13;3.97;;;;;;;;;;5037750;28;20263;-66
2022/03/02 12:24:38;;;;;;;9.03;4.10;;;;;;;;;;5036945;28;20207;-66
2022/03/02 12:27:08;;;;;;;7.97;3.97;;;;;;;;;;5019193;28;20256;-66
2022/03/02 12:29:37;;;;;;;11.30;4.40;;;;;;;;;;5017654;28;20212;-67
2022/03/02 12:32:08;;;;;;;7.23;4.20;;;;;;;;;;5017919;28;20235;-66
2022/03/02 12:34:39;;;;;;;8.40;4.20;;;;;;;;;;5024860;28;20730;-67
2022/03/02 12:37:07;;;;;;;5.10;3.80;;;;;;;;;;5023128;28;20233;-66
2022/03/02 12:39:36;;;;;;;5.37;3.77;;;;;;;;;;5017820;28;20288;-66
2022/03/02 12:42:07;;;;;;;7.07;3.80;;;;;;;;;;5017678;28;20638;-66
2022/03/02 12:44:37;;;;;;;7.67;3.40;;;;;;;;;;5017898;28;20204;-66
2022/03/02 12:47:07;;;;;;;11.87;4.10;;;;;;;;;;5017528;28;20642;-67
2022/03/02 12:49:36;;;;;;;6.87;3.93;;;;;;;;;;5019997;28;20288;-67
2022/03/02 12:52:06;;;;;;;8.63;3.97;;;;;;;;;;5036452;28;20245;-66
2022/03/02 12:54:35;;;;;;;5.57;3.67;;;;;;;;;;5036900;28;20621;-66
2022/03/02 12:57:05;;;;;;;10.00;3.90;;;;;;;;;;5037179;28;20634;-67
2022/03/02 12:59:33;;;;;;;7.17;4.27;;;;;;;;;;5037290;28;20246;-66
2022/03/02 13:02:04;;;;;;;6.20;3.93;;;;;;;;;;5028064;28;20578;-66
2022/03/02 13:04:36;;;;;;;7.23;4.80;;;;;;;;;;5017341;28;20208;-66
2022/03/02 13:07:20;;;;;;;6.90;3.67;;;;;;;;;;5017406;28;20286;-67
2022/03/02 13:09:50;;;;;;;6.57;3.50;;;;;;;;;;5017554;28;20219;-67
2022/03/02 13:12:28;;;;;;;6.03;3.67;;;;;;;;;;5017415;28;20332;-67
2022/03/02 13:14:56;;;;;;;7.07;3.80;;;;;;;;;;5017675;28;20246;-67
2022/03/02 13:17:25;;;;;;;7.80;3.73;;;;;;;;;;5031936;28;20208;-66
2022/03/02 13:20:00;;;;;;;4.07;3.43;;;;;;;;;;5036619;28;20203;-66
2022/03/02 13:22:31;;;;;;;7.40;3.97;;;;;;;;;;5036463;28;20236;-67
2022/03/02 13:25:02;;;;;;;4.93;3.90;;;;;;;;;;5036050;28;20208;-67
2022/03/02 13:27:31;;;;;;;5.07;3.90;;;;;;;;;;5017125;28;20735;-67
2022/03/02 13:30:00;;;;;;;10.77;3.90;;;;;;;;;;5017611;28;20208;-66
2022/03/02 13:32:42;;;;;;;11.50;4.37;;;;;;;;;;5017314;28;20266;-66
2022/03/02 13:35:30;;;;;;;6.47;4.50;;;;;;;;;;5014535;28;20285;-66
2022/03/02 13:38:07;;;;;;;8.47;3.83;;;;;;;;;;5021051;28;20232;-66
2022/03/02 13:40:36;;;;;;;7.53;4.20;;;;;;;;;;5021161;28;20235;-67
2022/03/02 13:43:19;;;;;;;6.80;3.50;;;;;;;;;;5020959;28;20318;-67
2022/03/02 13:45:49;;;;;;;4.67;3.93;;;;;;;;;;5027078;28;20632;-67
2022/03/02 13:48:18;;;;;;;8.97;3.93;;;;;;;;;;5040690;28;20242;-66
2022/03/02 13:50:55;;;;;;;4.20;3.30;;;;;;;;;;5040065;28;20667;-66
2022/03/02 13:53:33;;;;;;;5.53;3.60;;;;;;;;;;5040552;28;20238;-66
2022/03/02 13:56:04;;;;;;;4.70;3.60;;;;;;;;;;5040769;28;20238;-67
2022/03/02 13:58:33;;;;;;;4.17;3.30;;;;;;;;;;5040580;28;20318;-67
2022/03/02 14:01:18;;;;;;;4.47;3.40;;;;;;;;;;5040395;28;20215;-66
2022/03/02 14:03:50;;;;;;;7.33;3.90;;;;;;;;;;5024781;28;20235;-67
2022/03/02 14:06:18;;;;;;;4.70;3.83;;;;;;;;;;5020334;28;20236;-67
2022/03/02 14:08:49;;;;;;;5.47;3.87;;;;;;;;;;5033332;28;20782;-66
2022/03/02 14:11:31;;;;;;;6.23;3.90;;;;;;;;;;5020966;28;20239;-66
2022/03/02 14:13:59;;;;;;;5.37;3.30;;;;;;;;;;5032014;28;20222;-67
2022/03/02 14:16:27;;;;;;;7.70;4.07;;;;;;;;;;5037887;28;20748;-67
2022/03/02 14:19:05;;;;;;;6.43;4.07;;;;;;;;;;5037542;28;20273;-67
2022/03/02 14:21:33;;;;;;;7.23;4.07;;;;;;;;;;5039199;28;20236;-66
2022/03/02 14:24:16;;;;;;;8.07;3.80;;;;;;;;;;5040156;28;20281;-66
2022/03/02 14:26:52;;;;;;;9.03;4.27;;;;;;;;;;5024375;28;20618;-67
2022/03/02 14:29:21;;;;;;;5.00;3.93;;;;;;;;;;5020541;28;20600;-66
2022/03/02 14:31:53;;;;;;;7.37;3.67;;;;;;;;;;5020559;28;20212;-67
2022/03/02 14:34:22;;;;;;;8.93;3.97;;;;;;;;;;5020085;28;20682;-67
2022/03/02 14:37:05;;;;;;;6.07;3.67;;;;;;;;;;5019895;28;20266;-67
2022/03/02 14:39:34;;;;;;;7.27;3.80;;;;;;;;;;5036621;28;20645;-67
2022/03/02 14:42:15;;;;;;;5.17;4.03;;;;;;;;;;5020008;28;20223;-67
2022/03/02 14:44:44;;;;;;;5.20;3.20;;;;;;;;;;5019943;28;20216;-66
2022/03/02 14:47:25;;;;;;;6.90;3.60;;;;;;;;;;5018352;28;20232;-67
2022/03/02 14:49:53;;;;;;;8.37;3.97;;;;;;;;;;5027210;28;20210;-66
2022/03/02 14:52:28;;;;;;;5.50;3.97;;;;;;;;;;5039503;28;20283;-67
2022/03/02 14:54:58;;;;;;;8.37;3.60;;;;;;;;;;5030867;28;20291;-66